sensor_id;sensor_type;location;lat;lon;timestamp;temperature;humidity
66752;SHT31;53663;42.676;23.238;2022-09-17T00:01:25;16.56;84.32
66752;SHT31;53663;42.676;23.238;2022-09-17T00:03:56;16.53;84.53
66752;SHT31;53663;42.676;23.238;2022-09-17T00:06:24;16.41;84.88
66752;SHT31;53663;42.676;23.238;2022-09-17T00:08:52;16.40;84.99
66752;SHT31;53663;42.676;23.238;2022-09-17T00:11:29;16.38;85.10
66752;SHT31;53663;42.676;23.238;2022-09-17T00:13:58;16.50;84.84
66752;SHT31;53663;42.676;23.238;2022-09-17T00:16:28;16.63;84.38
66752;SHT31;53663;42.676;23.238;2022-09-17T00:18:54;16.50;84.92
66752;SHT31;53663;42.676;23.238;2022-09-17T00:21:20;16.48;84.49
66752;SHT31;53663;42.676;23.238;2022-09-17T00:23:47;16.56;84.57
66752;SHT31;53663;42.676;23.238;2022-09-17T00:26:12;16.74;84.32
66752;SHT31;53663;42.676;23.238;2022-09-17T00:28:38;16.69;83.80
66752;SHT31;53663;42.676;23.238;2022-09-17T00:31:10;16.60;83.73
66752;SHT31;53663;42.676;23.238;2022-09-17T00:33:37;16.58;84.04
66752;SHT31;53663;42.676;23.238;2022-09-17T00:36:03;16.58;84.35
66752;SHT31;53663;42.676;23.238;2022-09-17T00:38:29;16.60;84.10
66752;SHT31;53663;42.676;23.238;2022-09-17T00:40:55;16.57;84.60
66752;SHT31;53663;42.676;23.238;2022-09-17T00:43:45;16.69;84.21
66752;SHT31;53663;42.676;23.238;2022-09-17T00:48:43;16.82;83.78
66752;SHT31;53663;42.676;23.238;2022-09-17T00:51:10;16.81;83.50
66752;SHT31;53663;42.676;23.238;2022-09-17T00:53:38;16.79;83.55
66752;SHT31;53663;42.676;23.238;2022-09-17T00:56:26;16.85;83.38
66752;SHT31;53663;42.676;23.238;2022-09-17T00:58:53;16.81;84.08
66752;SHT31;53663;42.676;23.238;2022-09-17T01:01:19;16.79;83.93
66752;SHT31;53663;42.676;23.238;2022-09-17T01:03:45;16.81;84.01
66752;SHT31;53663;42.676;23.238;2022-09-17T01:30:56;16.30;86.21
66752;SHT31;53663;42.676;23.238;2022-09-17T01:33:46;16.40;85.91
66752;SHT31;53663;42.676;23.238;2022-09-17T01:41:44;16.20;86.24
66752;SHT31;53663;42.676;23.238;2022-09-17T01:46:45;15.90;87.89
66752;SHT31;53663;42.676;23.238;2022-09-17T01:49:15;15.95;88.10
66752;SHT31;53663;42.676;23.238;2022-09-17T01:51:44;16.09;88.02
66752;SHT31;53663;42.676;23.238;2022-09-17T01:57:08;16.24;87.17
66752;SHT31;53663;42.676;23.238;2022-09-17T01:59:44;16.20;86.84
66752;SHT31;53663;42.676;23.238;2022-09-17T02:02:45;16.29;86.75
66752;SHT31;53663;42.676;23.238;2022-09-17T02:05:23;16.30;85.94
66752;SHT31;53663;42.676;23.238;2022-09-17T02:07:57;16.33;85.42
66752;SHT31;53663;42.676;23.238;2022-09-17T02:10:36;16.47;85.27
66752;SHT31;53663;42.676;23.238;2022-09-17T02:13:59;16.48;85.20
66752;SHT31;53663;42.676;23.238;2022-09-17T02:16:21;16.36;85.71
66752;SHT31;53663;42.676;23.238;2022-09-17T02:19:34;16.02;87.43
66752;SHT31;53663;42.676;23.238;2022-09-17T02:24:22;17.22;76.67
66752;SHT31;53663;42.676;23.238;2022-09-17T02:29:34;19.61;64.49
66752;SHT31;53663;42.676;23.238;2022-09-17T02:32:02;19.90;62.56
66752;SHT31;53663;42.676;23.238;2022-09-17T02:34:28;19.52;72.14
66752;SHT31;53663;42.676;23.238;2022-09-17T02:36:55;18.53;76.73
66752;SHT31;53663;42.676;23.238;2022-09-17T02:39:22;17.87;79.02
66752;SHT31;53663;42.676;23.238;2022-09-17T02:45:02;17.06;82.67
66752;SHT31;53663;42.676;23.238;2022-09-17T02:47:59;16.68;84.26
66752;SHT31;53663;42.676;23.238;2022-09-17T02:50:39;16.61;84.97
66752;SHT31;53663;42.676;23.238;2022-09-17T02:55:51;16.50;85.07
66752;SHT31;53663;42.676;23.238;2022-09-17T02:58:32;16.63;83.87
66752;SHT31;53663;42.676;23.238;2022-09-17T03:01:05;16.56;84.82
66752;SHT31;53663;42.676;23.238;2022-09-17T03:03:33;16.46;85.42
66752;SHT31;53663;42.676;23.238;2022-09-17T03:06:00;16.29;86.16
66752;SHT31;53663;42.676;23.238;2022-09-17T03:08:32;16.26;86.95
66752;SHT31;53663;42.676;23.238;2022-09-17T03:10:58;16.31;86.92
66752;SHT31;53663;42.676;23.238;2022-09-17T03:13:24;16.37;86.96
66752;SHT31;53663;42.676;23.238;2022-09-17T03:15:49;16.34;87.26
66752;SHT31;53663;42.676;23.238;2022-09-17T03:18:15;15.95;88.09
66752;SHT31;53663;42.676;23.238;2022-09-17T03:20:40;16.08;88.71
66752;SHT31;53663;42.676;23.238;2022-09-17T03:23:06;15.98;88.65
66752;SHT31;53663;42.676;23.238;2022-09-17T03:25:31;15.77;89.36
66752;SHT31;53663;42.676;23.238;2022-09-17T03:27:57;15.61;89.76
66752;SHT31;53663;42.676;23.238;2022-09-17T03:30:23;15.63;90.05
66752;SHT31;53663;42.676;23.238;2022-09-17T03:32:48;15.68;90.42
66752;SHT31;53663;42.676;23.238;2022-09-17T03:35:14;15.75;90.05
66752;SHT31;53663;42.676;23.238;2022-09-17T03:37:39;15.83;89.62
66752;SHT31;53663;42.676;23.238;2022-09-17T03:40:05;15.93;89.23
66752;SHT31;53663;42.676;23.238;2022-09-17T03:42:31;16.03;89.60
66752;SHT31;53663;42.676;23.238;2022-09-17T03:44:56;16.14;88.44
66752;SHT31;53663;42.676;23.238;2022-09-17T03:47:22;16.26;87.53
66752;SHT31;53663;42.676;23.238;2022-09-17T03:49:47;16.34;87.13
66752;SHT31;53663;42.676;23.238;2022-09-17T03:52:13;16.23;86.69
66752;SHT31;53663;42.676;23.238;2022-09-17T03:54:38;16.21;86.97
66752;SHT31;53663;42.676;23.238;2022-09-17T03:57:04;16.33;87.68
66752;SHT31;53663;42.676;23.238;2022-09-17T03:59:29;16.40;87.89
66752;SHT31;53663;42.676;23.238;2022-09-17T04:01:55;16.48;87.51
66752;SHT31;53663;42.676;23.238;2022-09-17T04:04:22;16.57;87.35
66752;SHT31;53663;42.676;23.238;2022-09-17T04:06:47;16.57;87.89
66752;SHT31;53663;42.676;23.238;2022-09-17T04:09:13;16.51;88.18
66752;SHT31;53663;42.676;23.238;2022-09-17T04:11:38;16.57;87.82
66752;SHT31;53663;42.676;23.238;2022-09-17T04:14:04;16.68;87.52
66752;SHT31;53663;42.676;23.238;2022-09-17T04:16:29;16.67;87.45
66752;SHT31;53663;42.676;23.238;2022-09-17T04:18:55;16.75;87.45
66752;SHT31;53663;42.676;23.238;2022-09-17T04:21:21;16.74;87.57
66752;SHT31;53663;42.676;23.238;2022-09-17T04:23:46;16.78;87.13
66752;SHT31;53663;42.676;23.238;2022-09-17T04:26:12;16.82;87.29
66752;SHT31;53663;42.676;23.238;2022-09-17T04:28:37;16.74;87.73
66752;SHT31;53663;42.676;23.238;2022-09-17T04:31:03;16.68;87.85
66752;SHT31;53663;42.676;23.238;2022-09-17T04:33:28;16.48;87.71
66752;SHT31;53663;42.676;23.238;2022-09-17T04:35:54;16.46;87.95
66752;SHT31;53663;42.676;23.238;2022-09-17T04:38:19;16.67;87.00
66752;SHT31;53663;42.676;23.238;2022-09-17T04:40:46;16.98;85.98
66752;SHT31;53663;42.676;23.238;2022-09-17T04:43:12;17.18;85.00
66752;SHT31;53663;42.676;23.238;2022-09-17T04:45:38;17.37;83.98
66752;SHT31;53663;42.676;23.238;2022-09-17T04:48:04;17.46;84.03
66752;SHT31;53663;42.676;23.238;2022-09-17T04:50:30;17.50;83.58
66752;SHT31;53663;42.676;23.238;2022-09-17T04:52:56;17.59;83.70
66752;SHT31;53663;42.676;23.238;2022-09-17T04:55:22;17.57;83.08
66752;SHT31;53663;42.676;23.238;2022-09-17T04:57:49;17.62;83.36
66752;SHT31;53663;42.676;23.238;2022-09-17T05:00:16;17.57;83.73
66752;SHT31;53663;42.676;23.238;2022-09-17T05:02:52;17.50;84.76
66752;SHT31;53663;42.676;23.238;2022-09-17T05:05:18;17.51;84.76
66752;SHT31;53663;42.676;23.238;2022-09-17T05:07:44;17.32;85.33
66752;SHT31;53663;42.676;23.238;2022-09-17T05:10:12;17.44;85.20
66752;SHT31;53663;42.676;23.238;2022-09-17T05:12:37;17.39;85.00
66752;SHT31;53663;42.676;23.238;2022-09-17T05:15:04;17.36;85.14
66752;SHT31;53663;42.676;23.238;2022-09-17T05:17:29;17.30;85.06
66752;SHT31;53663;42.676;23.238;2022-09-17T05:19:56;17.33;85.46
66752;SHT31;53663;42.676;23.238;2022-09-17T05:22:21;17.33;85.11
66752;SHT31;53663;42.676;23.238;2022-09-17T05:24:47;17.43;85.34
66752;SHT31;53663;42.676;23.238;2022-09-17T05:27:13;17.32;85.00
66752;SHT31;53663;42.676;23.238;2022-09-17T05:29:38;17.36;85.18
66752;SHT31;53663;42.676;23.238;2022-09-17T05:32:04;17.39;85.02
66752;SHT31;53663;42.676;23.238;2022-09-17T05:34:30;17.47;84.04
66752;SHT31;53663;42.676;23.238;2022-09-17T05:36:56;17.54;83.80
66752;SHT31;53663;42.676;23.238;2022-09-17T05:39:21;17.69;83.88
66752;SHT31;53663;42.676;23.238;2022-09-17T05:41:53;17.83;82.52
66752;SHT31;53663;42.676;23.238;2022-09-17T05:44:19;17.94;82.18
66752;SHT31;53663;42.676;23.238;2022-09-17T05:46:45;18.02;81.73
66752;SHT31;53663;42.676;23.238;2022-09-17T05:49:12;18.04;80.95
66752;SHT31;53663;42.676;23.238;2022-09-17T05:51:40;18.09;81.49
66752;SHT31;53663;42.676;23.238;2022-09-17T05:54:06;17.78;82.65
66752;SHT31;53663;42.676;23.238;2022-09-17T05:56:31;17.60;83.49
66752;SHT31;53663;42.676;23.238;2022-09-17T05:58:57;17.63;83.78
66752;SHT31;53663;42.676;23.238;2022-09-17T06:01:23;17.62;83.77
66752;SHT31;53663;42.676;23.238;2022-09-17T06:03:49;17.66;82.84
66752;SHT31;53663;42.676;23.238;2022-09-17T06:06:14;17.67;82.59
66752;SHT31;53663;42.676;23.238;2022-09-17T06:08:40;17.73;82.00
66752;SHT31;53663;42.676;23.238;2022-09-17T06:11:06;17.67;81.90
66752;SHT31;53663;42.676;23.238;2022-09-17T06:13:32;17.75;80.81
66752;SHT31;53663;42.676;23.238;2022-09-17T06:15:59;17.85;81.84
66752;SHT31;53663;42.676;23.238;2022-09-17T06:18:25;17.97;82.23
66752;SHT31;53663;42.676;23.238;2022-09-17T06:20:55;18.01;81.83
66752;SHT31;53663;42.676;23.238;2022-09-17T06:23:21;18.01;82.62
66752;SHT31;53663;42.676;23.238;2022-09-17T06:25:55;17.94;83.40
66752;SHT31;53663;42.676;23.238;2022-09-17T06:28:21;17.85;83.45
66752;SHT31;53663;42.676;23.238;2022-09-17T06:30:47;17.92;83.48
66752;SHT31;53663;42.676;23.238;2022-09-17T06:33:13;17.91;83.46
66752;SHT31;53663;42.676;23.238;2022-09-17T06:35:39;17.90;82.85
66752;SHT31;53663;42.676;23.238;2022-09-17T06:38:04;17.75;82.96
66752;SHT31;53663;42.676;23.238;2022-09-17T06:40:30;17.83;83.22
66752;SHT31;53663;42.676;23.238;2022-09-17T06:42:57;17.94;82.62
66752;SHT31;53663;42.676;23.238;2022-09-17T06:45:24;17.84;82.81
66752;SHT31;53663;42.676;23.238;2022-09-17T06:47:50;17.91;81.87
66752;SHT31;53663;42.676;23.238;2022-09-17T06:50:15;18.11;81.55
66752;SHT31;53663;42.676;23.238;2022-09-17T06:52:53;18.08;81.33
66752;SHT31;53663;42.676;23.238;2022-09-17T06:55:20;18.04;81.16
66752;SHT31;53663;42.676;23.238;2022-09-17T06:57:45;17.97;82.19
66752;SHT31;53663;42.676;23.238;2022-09-17T07:00:13;17.74;83.45
66752;SHT31;53663;42.676;23.238;2022-09-17T07:02:39;17.87;82.90
66752;SHT31;53663;42.676;23.238;2022-09-17T07:05:05;19.12;79.02
66752;SHT31;53663;42.676;23.238;2022-09-17T07:07:30;19.52;78.12
66752;SHT31;53663;42.676;23.238;2022-09-17T07:09:56;19.92;77.17
66752;SHT31;53663;42.676;23.238;2022-09-17T07:12:21;22.10;72.04
66752;SHT31;53663;42.676;23.238;2022-09-17T07:14:47;25.34;58.27
66752;SHT31;53663;42.676;23.238;2022-09-17T07:17:13;25.38;58.18
66752;SHT31;53663;42.676;23.238;2022-09-17T07:19:39;25.64;54.87
66752;SHT31;53663;42.676;23.238;2022-09-17T07:22:05;26.42;52.95
66752;SHT31;53663;42.676;23.238;2022-09-17T07:24:30;25.40;54.95
66752;SHT31;53663;42.676;23.238;2022-09-17T07:26:56;26.08;55.58
66752;SHT31;53663;42.676;23.238;2022-09-17T07:29:21;25.64;54.04
66752;SHT31;53663;42.676;23.238;2022-09-17T07:31:51;26.35;51.96
66752;SHT31;53663;42.676;23.238;2022-09-17T07:34:16;25.73;55.47
66752;SHT31;53663;42.676;23.238;2022-09-17T07:36:42;28.43;47.57
66752;SHT31;53663;42.676;23.238;2022-09-17T07:39:09;29.44;45.80
66752;SHT31;53663;42.676;23.238;2022-09-17T07:41:36;33.02;38.34
66752;SHT31;53663;42.676;23.238;2022-09-17T07:44:01;33.97;35.34
66752;SHT31;53663;42.676;23.238;2022-09-17T07:46:27;29.72;44.07
66752;SHT31;53663;42.676;23.238;2022-09-17T07:48:54;27.83;49.17
66752;SHT31;53663;42.676;23.238;2022-09-17T07:51:22;27.56;49.78
66752;SHT31;53663;42.676;23.238;2022-09-17T07:53:56;27.85;48.65
66752;SHT31;53663;42.676;23.238;2022-09-17T07:56:27;30.02;44.34
66752;SHT31;53663;42.676;23.238;2022-09-17T07:58:52;31.01;42.22
66752;SHT31;53663;42.676;23.238;2022-09-17T08:01:18;32.24;39.79
66752;SHT31;53663;42.676;23.238;2022-09-17T08:03:51;33.02;36.86
66752;SHT31;53663;42.676;23.238;2022-09-17T08:06:26;32.57;38.79
66752;SHT31;53663;42.676;23.238;2022-09-17T08:08:56;33.25;37.90
66752;SHT31;53663;42.676;23.238;2022-09-17T08:11:26;30.18;44.22
66752;SHT31;53663;42.676;23.238;2022-09-17T08:13:53;29.99;45.93
66752;SHT31;53663;42.676;23.238;2022-09-17T08:16:19;29.98;46.15
66752;SHT31;53663;42.676;23.238;2022-09-17T08:18:46;29.44;45.70
66752;SHT31;53663;42.676;23.238;2022-09-17T08:21:15;28.73;48.21
66752;SHT31;53663;42.676;23.238;2022-09-17T08:23:42;28.82;46.93
66752;SHT31;53663;42.676;23.238;2022-09-17T08:26:16;29.77;46.46
66752;SHT31;53663;42.676;23.238;2022-09-17T08:28:47;31.96;40.89
66752;SHT31;53663;42.676;23.238;2022-09-17T08:31:15;31.70;41.01
66752;SHT31;53663;42.676;23.238;2022-09-17T08:33:41;30.99;42.57
66752;SHT31;53663;42.676;23.238;2022-09-17T08:36:09;30.46;44.44
66752;SHT31;53663;42.676;23.238;2022-09-17T08:38:36;29.71;44.86
66752;SHT31;53663;42.676;23.238;2022-09-17T08:46:42;26.88;50.96
66752;SHT31;53663;42.676;23.238;2022-09-17T09:00:38;24.30;58.08
66752;SHT31;53663;42.676;23.238;2022-09-17T09:05:46;23.34;61.03
66752;SHT31;53663;42.676;23.238;2022-09-17T09:11:03;23.00;64.95
66752;SHT31;53663;42.676;23.238;2022-09-17T09:13:40;22.23;66.65
66752;SHT31;53663;42.676;23.238;2022-09-17T09:16:14;22.47;67.38
66752;SHT31;53663;42.676;23.238;2022-09-17T09:18:42;22.26;69.78
66752;SHT31;53663;42.676;23.238;2022-09-17T09:34:47;22.26;72.83
66752;SHT31;53663;42.676;23.238;2022-09-17T09:37:32;22.29;72.06
66752;SHT31;53663;42.676;23.238;2022-09-17T09:40:21;22.22;72.05
66752;SHT31;53663;42.676;23.238;2022-09-17T09:42:47;22.35;71.82
66752;SHT31;53663;42.676;23.238;2022-09-17T09:45:45;22.32;72.52
66752;SHT31;53663;42.676;23.238;2022-09-17T09:48:26;22.26;72.76
66752;SHT31;53663;42.676;23.238;2022-09-17T09:56:31;21.50;75.09
66752;SHT31;53663;42.676;23.238;2022-09-17T09:58:58;21.20;75.48
66752;SHT31;53663;42.676;23.238;2022-09-17T10:01:26;20.34;77.11
66752;SHT31;53663;42.676;23.238;2022-09-17T10:03:52;20.00;79.18
66752;SHT31;53663;42.676;23.238;2022-09-17T10:06:20;19.59;80.44
66752;SHT31;53663;42.676;23.238;2022-09-17T10:11:28;19.79;80.89
66752;SHT31;53663;42.676;23.238;2022-09-17T10:14:14;19.76;80.69
66752;SHT31;53663;42.676;23.238;2022-09-17T10:16:40;19.75;80.86
66752;SHT31;53663;42.676;23.238;2022-09-17T10:21:34;19.68;81.13
66752;SHT31;53663;42.676;23.238;2022-09-17T10:24:01;19.61;80.54
66752;SHT31;53663;42.676;23.238;2022-09-17T10:26:30;19.25;82.19
66752;SHT31;53663;42.676;23.238;2022-09-17T10:28:58;19.04;83.21
66752;SHT31;53663;42.676;23.238;2022-09-17T10:31:24;19.42;82.54
66752;SHT31;53663;42.676;23.238;2022-09-17T10:33:56;19.41;84.00
66752;SHT31;53663;42.676;23.238;2022-09-17T10:39:33;19.32;83.73
66752;SHT31;53663;42.676;23.238;2022-09-17T10:42:13;19.32;83.39
66752;SHT31;53663;42.676;23.238;2022-09-17T10:47:24;19.79;73.99
66752;SHT31;53663;42.676;23.238;2022-09-17T10:52:24;19.90;69.59
66752;SHT31;53663;42.676;23.238;2022-09-17T11:09:04;20.51;78.33
66752;SHT31;53663;42.676;23.238;2022-09-17T11:14:52;20.54;78.66
66752;SHT31;53663;42.676;23.238;2022-09-17T11:20:19;20.67;78.16
66752;SHT31;53663;42.676;23.238;2022-09-17T11:25:57;21.10;76.16
66752;SHT31;53663;42.676;23.238;2022-09-17T11:34:03;21.03;72.70
66752;SHT31;53663;42.676;23.238;2022-09-17T11:36:50;21.18;65.70
66752;SHT31;53663;42.676;23.238;2022-09-17T11:42:38;20.85;64.56
66752;SHT31;53663;42.676;23.238;2022-09-17T11:47:46;20.16;66.10
66752;SHT31;53663;42.676;23.238;2022-09-17T11:50:22;20.17;64.95
66752;SHT31;53663;42.676;23.238;2022-09-17T11:58:47;19.29;70.70
66752;SHT31;53663;42.676;23.238;2022-09-17T12:09:28;19.03;72.55
66752;SHT31;53663;42.676;23.238;2022-09-17T12:14:34;18.86;72.36
66752;SHT31;53663;42.676;23.238;2022-09-17T12:17:05;19.06;72.39
66752;SHT31;53663;42.676;23.238;2022-09-17T12:19:36;18.97;71.13
66752;SHT31;53663;42.676;23.238;2022-09-17T12:22:25;19.03;74.29
66752;SHT31;53663;42.676;23.238;2022-09-17T12:24:52;18.74;73.51
66752;SHT31;53663;42.676;23.238;2022-09-17T12:30:21;18.77;75.00
66752;SHT31;53663;42.676;23.238;2022-09-17T12:41:20;17.85;77.71
66752;SHT31;53663;42.676;23.238;2022-09-17T12:46:55;17.83;77.20
66752;SHT31;53663;42.676;23.238;2022-09-17T12:55:12;17.85;77.73
66752;SHT31;53663;42.676;23.238;2022-09-17T12:58:05;17.80;78.92
66752;SHT31;53663;42.676;23.238;2022-09-17T13:00:39;17.63;78.88
66752;SHT31;53663;42.676;23.238;2022-09-17T13:06:20;17.77;78.90
66752;SHT31;53663;42.676;23.238;2022-09-17T13:14:27;17.84;79.83
66752;SHT31;53663;42.676;23.238;2022-09-17T13:20:02;17.80;78.89
66752;SHT31;53663;42.676;23.238;2022-09-17T13:22:30;17.73;80.11
66752;SHT31;53663;42.676;23.238;2022-09-17T13:25:10;17.67;78.89
66752;SHT31;53663;42.676;23.238;2022-09-17T13:27:37;17.73;78.01
66752;SHT31;53663;42.676;23.238;2022-09-17T13:30:07;17.71;78.74
66752;SHT31;53663;42.676;23.238;2022-09-17T13:37:32;17.75;79.03
66752;SHT31;53663;42.676;23.238;2022-09-17T13:39:59;17.77;78.01
66752;SHT31;53663;42.676;23.238;2022-09-17T13:42:28;17.62;79.55
66752;SHT31;53663;42.676;23.238;2022-09-17T13:45:02;17.62;79.16
66752;SHT31;53663;42.676;23.238;2022-09-17T13:47:47;17.57;79.18
66752;SHT31;53663;42.676;23.238;2022-09-17T13:50:33;17.73;79.34
66752;SHT31;53663;42.676;23.238;2022-09-17T13:55:46;17.71;77.65
66752;SHT31;53663;42.676;23.238;2022-09-17T14:11:01;18.21;76.22
66752;SHT31;53663;42.676;23.238;2022-09-17T14:27:13;18.60;73.02
66752;SHT31;53663;42.676;23.238;2022-09-17T14:30:05;18.67;71.99
66752;SHT31;53663;42.676;23.238;2022-09-17T14:35:35;18.64;76.27
66752;SHT31;53663;42.676;23.238;2022-09-17T14:38:02;18.38;79.05
66752;SHT31;53663;42.676;23.238;2022-09-17T14:40:32;18.38;80.10
66752;SHT31;53663;42.676;23.238;2022-09-17T14:42:59;18.35;79.88
66752;SHT31;53663;42.676;23.238;2022-09-17T14:45:39;18.45;80.52
66752;SHT31;53663;42.676;23.238;2022-09-17T14:48:28;18.31;81.36
66752;SHT31;53663;42.676;23.238;2022-09-17T14:51:31;18.41;81.42
66752;SHT31;53663;42.676;23.238;2022-09-17T14:54:13;18.39;81.13
66752;SHT31;53663;42.676;23.238;2022-09-17T14:56:58;18.42;81.63
66752;SHT31;53663;42.676;23.238;2022-09-17T14:59:31;18.29;82.25
66752;SHT31;53663;42.676;23.238;2022-09-17T15:01:59;18.39;81.70
66752;SHT31;53663;42.676;23.238;2022-09-17T15:04:26;18.50;81.97
66752;SHT31;53663;42.676;23.238;2022-09-17T15:07:05;18.06;80.60
66752;SHT31;53663;42.676;23.238;2022-09-17T15:09:31;17.95;79.80
66752;SHT31;53663;42.676;23.238;2022-09-17T15:11:58;18.00;82.42
66752;SHT31;53663;42.676;23.238;2022-09-17T15:14:30;17.69;81.93
66752;SHT31;53663;42.676;23.238;2022-09-17T15:16:59;17.64;81.39
66752;SHT31;53663;42.676;23.238;2022-09-17T15:19:29;17.87;81.24
66752;SHT31;53663;42.676;23.238;2022-09-17T15:21:58;18.09;80.53
66752;SHT31;53663;42.676;23.238;2022-09-17T15:27:13;17.81;82.38
66752;SHT31;53663;42.676;23.238;2022-09-17T15:29:44;17.85;82.57
66752;SHT31;53663;42.676;23.238;2022-09-17T15:32:11;17.88;82.73
66752;SHT31;53663;42.676;23.238;2022-09-17T15:34:38;17.80;84.60
66752;SHT31;53663;42.676;23.238;2022-09-17T15:39:47;17.59;85.19
66752;SHT31;53663;42.676;23.238;2022-09-17T15:42:28;17.67;84.96
66752;SHT31;53663;42.676;23.238;2022-09-17T15:47:35;17.73;84.36
66752;SHT31;53663;42.676;23.238;2022-09-17T15:50:17;17.84;84.66
66752;SHT31;53663;42.676;23.238;2022-09-17T15:52:43;17.77;84.19
66752;SHT31;53663;42.676;23.238;2022-09-17T15:55:33;17.69;79.56
66752;SHT31;53663;42.676;23.238;2022-09-17T15:58:02;18.05;74.01
66752;SHT31;53663;42.676;23.238;2022-09-17T16:00:29;18.33;72.45
66752;SHT31;53663;42.676;23.238;2022-09-17T16:06:01;18.55;71.11
66752;SHT31;53663;42.676;23.238;2022-09-17T16:08:32;18.46;71.24
66752;SHT31;53663;42.676;23.238;2022-09-17T16:10:58;18.53;70.50
66752;SHT31;53663;42.676;23.238;2022-09-17T16:13:23;18.56;70.59
66752;SHT31;53663;42.676;23.238;2022-09-17T16:15:49;18.59;69.79
66752;SHT31;53663;42.676;23.238;2022-09-17T16:18:15;18.57;70.03
66752;SHT31;53663;42.676;23.238;2022-09-17T16:20:40;18.57;69.91
66752;SHT31;53663;42.676;23.238;2022-09-17T16:23:06;18.56;70.06
66752;SHT31;53663;42.676;23.238;2022-09-17T16:25:32;18.52;69.41
66752;SHT31;53663;42.676;23.238;2022-09-17T16:28:12;18.79;69.22
66752;SHT31;53663;42.676;23.238;2022-09-17T16:30:43;18.69;71.80
66752;SHT31;53663;42.676;23.238;2022-09-17T16:33:10;18.71;72.79
66752;SHT31;53663;42.676;23.238;2022-09-17T16:35:36;18.45;74.59
66752;SHT31;53663;42.676;23.238;2022-09-17T16:38:03;18.39;75.74
66752;SHT31;53663;42.676;23.238;2022-09-17T16:40:29;18.14;76.65
66752;SHT31;53663;42.676;23.238;2022-09-17T16:42:59;18.16;75.46
66752;SHT31;53663;42.676;23.238;2022-09-17T16:45:25;18.04;75.68
66752;SHT31;53663;42.676;23.238;2022-09-17T16:47:50;18.06;76.24
66752;SHT31;53663;42.676;23.238;2022-09-17T16:50:16;17.71;78.41
66752;SHT31;53663;42.676;23.238;2022-09-17T16:52:43;17.53;80.43
66752;SHT31;53663;42.676;23.238;2022-09-17T16:55:09;17.44;80.20
66752;SHT31;53663;42.676;23.238;2022-09-17T16:57:35;17.37;80.95
66752;SHT31;53663;42.676;23.238;2022-09-17T17:00:02;17.32;81.48
66752;SHT31;53663;42.676;23.238;2022-09-17T17:02:28;17.32;81.16
66752;SHT31;53663;42.676;23.238;2022-09-17T17:04:54;17.26;80.90
66752;SHT31;53663;42.676;23.238;2022-09-17T17:07:19;17.59;76.88
66752;SHT31;53663;42.676;23.238;2022-09-17T17:09:45;17.74;75.48
66752;SHT31;53663;42.676;23.238;2022-09-17T17:12:11;18.18;71.45
66752;SHT31;53663;42.676;23.238;2022-09-17T17:14:36;18.57;69.40
66752;SHT31;53663;42.676;23.238;2022-09-17T17:17:02;18.74;68.72
66752;SHT31;53663;42.676;23.238;2022-09-17T17:19:27;18.96;67.67
66752;SHT31;53663;42.676;23.238;2022-09-17T17:21:55;19.01;67.68
66752;SHT31;53663;42.676;23.238;2022-09-17T17:24:20;19.11;67.04
66752;SHT31;53663;42.676;23.238;2022-09-17T17:26:47;19.24;66.49
66752;SHT31;53663;42.676;23.238;2022-09-17T17:29:13;19.34;66.05
66752;SHT31;53663;42.676;23.238;2022-09-17T17:31:39;19.44;65.04
66752;SHT31;53663;42.676;23.238;2022-09-17T17:34:04;19.42;65.06
66752;SHT31;53663;42.676;23.238;2022-09-17T17:36:30;19.52;65.31
66752;SHT31;53663;42.676;23.238;2022-09-17T17:38:57;19.52;64.94
66752;SHT31;53663;42.676;23.238;2022-09-17T17:41:23;19.51;65.22
66752;SHT31;53663;42.676;23.238;2022-09-17T17:43:55;19.68;63.92
66752;SHT31;53663;42.676;23.238;2022-09-17T17:46:22;19.70;64.25
66752;SHT31;53663;42.676;23.238;2022-09-17T17:48:48;19.65;64.16
66752;SHT31;53663;42.676;23.238;2022-09-17T17:51:14;19.51;66.13
66752;SHT31;53663;42.676;23.238;2022-09-17T17:53:43;19.32;66.31
66752;SHT31;53663;42.676;23.238;2022-09-17T17:56:10;19.32;67.72
66752;SHT31;53663;42.676;23.238;2022-09-17T17:58:36;19.11;69.69
66752;SHT31;53663;42.676;23.238;2022-09-17T18:01:14;19.08;67.40
66752;SHT31;53663;42.676;23.238;2022-09-17T18:03:40;19.06;69.13
66752;SHT31;53663;42.676;23.238;2022-09-17T18:06:06;19.08;67.44
66752;SHT31;53663;42.676;23.238;2022-09-17T18:08:34;19.11;69.18
66752;SHT31;53663;42.676;23.238;2022-09-17T18:11:00;19.14;70.33
66752;SHT31;53663;42.676;23.238;2022-09-17T18:13:28;18.97;71.13
66752;SHT31;53663;42.676;23.238;2022-09-17T18:15:58;18.77;72.41
66752;SHT31;53663;42.676;23.238;2022-09-17T18:18:29;18.67;73.09
66752;SHT31;53663;42.676;23.238;2022-09-17T18:20:58;18.56;73.26
66752;SHT31;53663;42.676;23.238;2022-09-17T18:23:24;18.50;73.73
66752;SHT31;53663;42.676;23.238;2022-09-17T18:25:57;18.41;74.59
66752;SHT31;53663;42.676;23.238;2022-09-17T18:28:23;18.18;75.15
66752;SHT31;53663;42.676;23.238;2022-09-17T18:30:49;18.21;74.97
66752;SHT31;53663;42.676;23.238;2022-09-17T18:33:23;18.32;73.33
66752;SHT31;53663;42.676;23.238;2022-09-17T18:35:51;18.32;73.21
66752;SHT31;53663;42.676;23.238;2022-09-17T18:38:22;18.39;71.10
66752;SHT31;53663;42.676;23.238;2022-09-17T18:40:47;18.41;72.19
66752;SHT31;53663;42.676;23.238;2022-09-17T18:43:13;18.49;69.51
66752;SHT31;53663;42.676;23.238;2022-09-17T18:45:38;18.60;68.68
66752;SHT31;53663;42.676;23.238;2022-09-17T18:48:04;18.89;66.85
66752;SHT31;53663;42.676;23.238;2022-09-17T18:50:31;18.97;66.69
66752;SHT31;53663;42.676;23.238;2022-09-17T18:52:57;19.10;66.78
66752;SHT31;53663;42.676;23.238;2022-09-17T18:55:22;19.11;66.36
66752;SHT31;53663;42.676;23.238;2022-09-17T18:57:49;19.12;66.36
66752;SHT31;53663;42.676;23.238;2022-09-17T19:00:17;19.12;66.71
66752;SHT31;53663;42.676;23.238;2022-09-17T19:02:46;19.14;66.06
66752;SHT31;53663;42.676;23.238;2022-09-17T19:05:12;19.15;66.15
66752;SHT31;53663;42.676;23.238;2022-09-17T19:07:37;19.22;65.42
66752;SHT31;53663;42.676;23.238;2022-09-17T19:10:07;19.34;65.05
66752;SHT31;53663;42.676;23.238;2022-09-17T19:12:33;19.42;64.15
66752;SHT31;53663;42.676;23.238;2022-09-17T19:14:58;19.36;65.15
66752;SHT31;53663;42.676;23.238;2022-09-17T19:17:24;19.49;63.69
66752;SHT31;53663;42.676;23.238;2022-09-17T19:19:49;19.52;63.24
66752;SHT31;53663;42.676;23.238;2022-09-17T19:22:15;19.69;62.66
66752;SHT31;53663;42.676;23.238;2022-09-17T19:24:42;19.69;62.62